Lannach, Austria
Current Conditions -  °F | °C
As of 7:50 AM on Sunday 23 Nov 2014 (Local Time) from LOWG Reporting Station
Haze Haze  
Wind Chill: 39°   Ceiling: 1600
Heat Index: 39°   Visibility: 3mi
Dew Point: 37°   Wind: 3mph
Humidity: 93%   Direction: 160°SSE
Pressure: 30.33"   Gusts: NA
Location:  46.94°N, 15.33°E
Report Text: LOWG 230550Z 16003KT 5000 BR OVC016 04/03 Q1027 TEMPO 4000
Loading
Personal Weather Stations






























Interactive Weather Map New forecast layout! Learn more

10-Day Weather Forecast

Advertisements
Track Severe Weather on mobile